createdAt,value
2023-05-16T00:02:16.591Z,81.72
2023-05-16T00:04:46.065Z,81.71
2023-05-16T00:07:14.351Z,81.53
2023-05-16T00:09:41.929Z,82.77
2023-05-16T00:12:09.659Z,81.79
2023-05-16T00:14:37.822Z,82.00
2023-05-16T00:17:11.539Z,81.40
2023-05-16T00:19:40.197Z,81.58
2023-05-16T00:22:09.094Z,81.96
2023-05-16T00:24:36.577Z,81.75
2023-05-16T00:27:04.614Z,82.18
2023-05-16T00:29:32.230Z,82.51
2023-05-16T00:31:59.728Z,84.10
2023-05-16T00:34:27.344Z,84.39
2023-05-16T00:36:55.138Z,84.73
2023-05-16T00:39:24.137Z,85.62
2023-05-16T00:41:51.961Z,85.47
2023-05-16T00:44:19.427Z,85.17
2023-05-16T00:46:47.315Z,84.99
2023-05-16T00:49:14.887Z,86.02
2023-05-16T00:51:42.685Z,87.04
2023-05-16T00:54:10.270Z,86.44
2023-05-16T00:56:39.624Z,86.68
2023-05-16T00:59:07.140Z,87.76
2023-05-16T01:01:34.879Z,87.71
2023-05-16T01:04:02.441Z,87.17
2023-05-16T01:06:30.140Z,86.14
2023-05-16T01:08:57.650Z,86.24
2023-05-16T01:11:29.578Z,86.19
2023-05-16T01:14:04.055Z,85.82
2023-05-16T01:16:35.380Z,86.34
2023-05-16T01:19:09.265Z,86.73
2023-05-16T01:21:44.914Z,88.90
2023-05-16T01:24:16.599Z,89.89
2023-05-16T01:26:45.896Z,89.57
2023-05-16T01:29:13.595Z,90.87
2023-05-16T01:31:41.182Z,90.35
2023-05-16T01:34:08.883Z,89.77
2023-05-16T01:36:40.864Z,88.83
2023-05-16T01:39:13.941Z,89.31
2023-05-16T01:41:49.331Z,88.88
2023-05-16T01:44:22.849Z,87.96
2023-05-16T01:46:54.260Z,87.75
2023-05-16T01:49:26.529Z,87.69
2023-05-16T01:51:57.127Z,87.91
2023-05-16T01:54:26.326Z,86.87
2023-05-16T01:56:56.139Z,86.43
2023-05-16T01:59:25.456Z,86.09
2023-05-16T02:01:54.420Z,86.37
2023-05-16T02:04:22.430Z,85.91
2023-05-16T02:06:50.352Z,86.73
2023-05-16T02:09:17.912Z,86.46
2023-05-16T02:11:46.736Z,86.44
2023-05-16T02:14:15.922Z,86.76
2023-05-16T02:16:43.437Z,86.64
2023-05-16T02:19:10.963Z,86.76
2023-05-16T02:21:38.485Z,86.34
2023-05-16T02:24:06.384Z,85.96
2023-05-16T02:26:34.055Z,86.67
2023-05-16T02:29:01.586Z,86.39
2023-05-16T02:31:31.736Z,86.53
2023-05-16T02:34:00.224Z,86.74
2023-05-16T02:36:27.744Z,85.83
2023-05-16T02:38:55.244Z,85.78
2023-05-16T02:41:23.170Z,85.69
2023-05-16T02:43:50.773Z,86.25
2023-05-16T02:46:22.706Z,86.73
2023-05-16T02:48:52.043Z,86.55
2023-05-16T02:51:20.782Z,86.56
2023-05-16T02:53:48.364Z,86.24
2023-05-16T02:56:15.851Z,85.93
2023-05-16T02:58:43.655Z,86.78
2023-05-16T03:01:11.218Z,86.33
2023-05-16T03:03:38.768Z,86.28
2023-05-16T03:06:07.925Z,86.28
2023-05-16T03:08:36.019Z,85.64
2023-05-16T03:11:03.516Z,86.69
2023-05-16T03:13:31.037Z,86.32
2023-05-16T03:15:58.582Z,86.61
2023-05-16T03:18:26.248Z,86.21
2023-05-16T03:20:54.012Z,86.25
2023-05-16T03:23:23.346Z,86.44
2023-05-16T03:25:50.923Z,85.93
2023-05-16T03:28:18.813Z,86.30
2023-05-16T03:30:46.587Z,86.32
2023-05-16T03:33:14.190Z,86.03
2023-05-16T03:35:42.087Z,85.79
2023-05-16T03:38:10.037Z,85.87
2023-05-16T03:40:38.929Z,85.63
2023-05-16T03:43:06.500Z,85.83
2023-05-16T03:45:34.097Z,85.78
2023-05-16T03:48:01.757Z,86.39
2023-05-16T03:50:29.391Z,86.50
2023-05-16T03:52:56.921Z,86.37
2023-05-16T03:55:24.649Z,86.37
2023-05-16T03:57:53.461Z,87.07
2023-05-16T04:00:20.934Z,86.55
2023-05-16T04:02:48.537Z,86.78
2023-05-16T04:05:16.414Z,86.19
2023-05-16T04:07:43.922Z,86.73
2023-05-16T04:10:12.373Z,86.70
2023-05-16T04:12:39.896Z,87.09
2023-05-16T04:15:09.695Z,85.63
2023-05-16T04:17:37.312Z,85.41
2023-05-16T04:20:05.359Z,85.31
2023-05-16T04:22:32.859Z,85.91
2023-05-16T04:25:00.551Z,85.88
2023-05-16T04:27:28.024Z,85.48
2023-05-16T04:29:56.171Z,85.28
2023-05-16T04:32:24.997Z,83.95
2023-05-16T04:34:53.233Z,84.84
2023-05-16T04:37:20.757Z,84.27
2023-05-16T04:39:48.195Z,83.96
2023-05-16T04:42:16.341Z,83.94
2023-05-16T04:44:44.008Z,83.55
2023-05-16T04:47:11.606Z,84.31
2023-05-16T04:49:40.550Z,84.45
2023-05-16T04:52:09.793Z,83.98
2023-05-16T04:54:37.244Z,83.90
2023-05-16T04:57:04.905Z,83.78
2023-05-16T04:59:32.424Z,82.15
2023-05-16T05:01:59.939Z,82.76
2023-05-16T05:04:27.489Z,82.57
2023-05-16T05:06:56.633Z,83.05
2023-05-16T05:09:24.454Z,82.85
2023-05-16T05:11:52.313Z,83.85
2023-05-16T05:14:19.809Z,82.51
2023-05-16T05:16:47.325Z,81.99
2023-05-16T05:19:14.826Z,82.31
2023-05-16T05:21:42.411Z,82.07
2023-05-16T05:24:11.386Z,81.76
2023-05-16T05:26:38.934Z,81.95
2023-05-16T05:29:06.570Z,82.26
2023-05-16T05:31:34.802Z,80.78
2023-05-16T05:34:02.534Z,80.27
2023-05-16T05:36:30.875Z,80.01
2023-05-16T05:38:58.665Z,80.35
2023-05-16T05:41:27.696Z,79.41
2023-05-16T05:43:55.187Z,79.97
2023-05-16T05:46:22.792Z,79.74
2023-05-16T05:48:50.534Z,79.31
2023-05-16T05:51:18.048Z,78.90
2023-05-16T05:53:45.736Z,79.44
2023-05-16T05:56:13.214Z,78.65
2023-05-16T05:58:42.423Z,78.04
2023-05-16T06:01:11.549Z,76.68
2023-05-16T06:03:39.083Z,77.22
2023-05-16T06:06:07.136Z,76.11
2023-05-16T06:08:34.578Z,75.71
2023-05-16T06:11:02.544Z,74.41
2023-05-16T06:13:30.042Z,74.58
2023-05-16T06:15:58.862Z,74.85
2023-05-16T06:18:26.400Z,74.67
2023-05-16T06:20:54.021Z,74.42
2023-05-16T06:23:22.001Z,74.94
2023-05-16T06:25:49.940Z,74.53
2023-05-16T06:28:17.491Z,74.57
2023-05-16T06:30:45.014Z,74.95
2023-05-16T06:33:15.505Z,74.97
2023-05-16T06:35:43.126Z,75.12
2023-05-16T06:38:10.685Z,74.47
2023-05-16T06:40:38.362Z,73.13
2023-05-16T06:43:06.033Z,74.19
2023-05-16T06:45:33.585Z,74.29
2023-05-16T06:48:01.380Z,73.90
2023-05-16T06:50:30.359Z,74.56
2023-05-16T06:52:57.907Z,74.32
2023-05-16T06:55:25.559Z,74.40
2023-05-16T06:57:53.201Z,73.87
2023-05-16T07:00:21.820Z,73.67
2023-05-16T07:02:49.626Z,74.24
2023-05-16T07:05:17.279Z,75.08
2023-05-16T07:07:46.647Z,75.01
2023-05-16T07:10:14.126Z,74.84
2023-05-16T07:12:43.024Z,75.18
2023-05-16T07:15:11.503Z,75.05
2023-05-16T07:17:39.087Z,75.61
2023-05-16T07:20:08.204Z,75.09
2023-05-16T07:22:36.223Z,75.23
2023-05-16T07:25:05.786Z,75.06
2023-05-16T07:27:33.297Z,74.19
2023-05-16T07:30:01.062Z,74.32
2023-05-16T07:32:28.649Z,73.55
2023-05-16T07:34:56.167Z,73.60
2023-05-16T07:37:23.673Z,74.04
2023-05-16T07:39:51.191Z,73.97
2023-05-16T07:42:20.074Z,74.18
2023-05-16T07:44:47.655Z,73.60
2023-05-16T07:47:15.688Z,73.95
2023-05-16T07:49:43.459Z,73.46
2023-05-16T07:52:11.144Z,73.51
2023-05-16T07:54:39.054Z,73.16
2023-05-16T07:57:07.173Z,73.63
2023-05-16T07:59:36.094Z,72.72
2023-05-16T08:02:03.820Z,72.81
2023-05-16T08:04:31.331Z,73.62
2023-05-16T08:06:58.826Z,72.83
2023-05-16T08:09:26.358Z,74.01
2023-05-16T08:11:53.946Z,74.00
2023-05-16T08:14:21.519Z,73.78
2023-05-16T08:16:50.549Z,74.15
2023-05-16T08:19:18.092Z,72.94
2023-05-16T08:21:45.823Z,73.40
2023-05-16T08:24:13.354Z,73.40
2023-05-16T08:26:40.889Z,73.26
2023-05-16T08:29:08.400Z,74.87
2023-05-16T08:31:36.001Z,73.91
2023-05-16T08:34:06.404Z,74.72
2023-05-16T08:36:35.537Z,73.67
2023-05-16T08:39:03.217Z,74.61
2023-05-16T08:41:30.853Z,73.33
2023-05-16T08:43:58.435Z,74.25
2023-05-16T08:46:26.928Z,74.15
2023-05-16T08:48:55.026Z,74.28
2023-05-16T08:51:26.579Z,75.20
2023-05-16T08:53:57.154Z,76.80
2023-05-16T08:56:25.788Z,76.69
2023-05-16T08:58:57.260Z,77.66
2023-05-16T09:01:25.059Z,78.59
2023-05-16T09:03:53.307Z,78.34
2023-05-16T09:06:20.948Z,78.24
2023-05-16T09:08:50.148Z,77.68
2023-05-16T09:11:17.674Z,77.69
2023-05-16T09:13:45.525Z,76.69
2023-05-16T09:16:13.972Z,76.99
2023-05-16T09:18:42.402Z,76.46
2023-05-16T09:21:11.181Z,77.41
2023-05-16T09:23:38.755Z,75.61
2023-05-16T09:26:08.352Z,74.90
2023-05-16T09:28:38.525Z,73.10
2023-05-16T09:31:07.194Z,72.80
2023-05-16T09:33:34.864Z,71.61
2023-05-16T09:36:03.792Z,72.13
2023-05-16T09:38:31.385Z,72.64
2023-05-16T09:40:58.936Z,69.69
2023-05-16T09:43:28.029Z,69.80
2023-05-16T09:45:56.129Z,70.09
2023-05-16T09:48:23.778Z,70.19
2023-05-16T09:50:53.330Z,68.86
2023-05-16T09:53:28.409Z,70.12
2023-05-16T09:56:03.387Z,68.02
2023-05-16T09:58:33.581Z,69.17
2023-05-16T10:01:01.663Z,69.01
2023-05-16T10:03:29.689Z,69.57
2023-05-16T10:05:57.414Z,69.27
2023-05-16T10:08:26.694Z,68.74
2023-05-16T10:10:56.467Z,68.97
2023-05-16T10:13:25.800Z,67.55
2023-05-16T10:15:57.100Z,66.91
2023-05-16T10:18:30.799Z,66.65
2023-05-16T10:21:09.643Z,66.94
2023-05-16T10:23:40.552Z,66.23
2023-05-16T10:26:08.673Z,66.17
2023-05-16T10:28:37.125Z,67.10
2023-05-16T10:31:06.780Z,66.28
2023-05-16T10:33:34.558Z,66.24
2023-05-16T10:36:03.637Z,65.80
2023-05-16T10:38:31.463Z,65.66
2023-05-16T10:40:59.150Z,65.40
2023-05-16T10:43:27.918Z,63.51
2023-05-16T10:45:56.901Z,63.42
2023-05-16T10:48:32.962Z,62.41
2023-05-16T10:51:00.734Z,60.17
2023-05-16T10:53:32.230Z,59.64
2023-05-16T10:56:10.386Z,60.19
2023-05-16T10:58:45.715Z,59.49
2023-05-16T11:01:17.995Z,59.34
2023-05-16T11:04:12.034Z,58.90
2023-05-16T11:06:47.669Z,57.86
2023-05-16T11:09:23.556Z,57.31
2023-05-16T11:12:00.022Z,57.99
2023-05-16T11:14:30.397Z,58.51
2023-05-16T11:17:02.636Z,58.22
2023-05-16T11:19:36.370Z,57.58
2023-05-16T11:22:11.706Z,57.46
2023-05-16T11:24:40.713Z,56.46
2023-05-16T11:27:08.336Z,55.59
2023-05-16T11:29:37.446Z,56.15
2023-05-16T11:32:06.044Z,55.63
2023-05-16T11:34:38.662Z,54.38
2023-05-16T11:37:06.722Z,54.48
2023-05-16T11:39:34.540Z,55.31
2023-05-16T11:42:02.430Z,53.04
2023-05-16T11:44:29.952Z,52.99
2023-05-16T11:46:57.553Z,53.17
2023-05-16T11:49:26.926Z,51.92
2023-05-16T11:51:57.494Z,52.86
2023-05-16T11:54:25.217Z,52.63
2023-05-16T11:56:52.849Z,53.32
2023-05-16T11:59:20.858Z,52.95
2023-05-16T12:01:50.428Z,53.03
2023-05-16T12:04:20.295Z,53.31
2023-05-16T12:07:01.156Z,54.20
2023-05-16T12:09:28.773Z,51.27
2023-05-16T12:11:56.362Z,48.88
2023-05-16T12:14:24.057Z,48.35
2023-05-16T12:16:53.132Z,47.77
2023-05-16T12:19:21.637Z,47.73
2023-05-16T12:21:49.388Z,48.96
2023-05-16T12:24:18.572Z,48.23
2023-05-16T12:26:46.359Z,46.92
2023-05-16T12:29:14.381Z,45.06
2023-05-16T12:31:42.302Z,43.89
2023-05-16T12:34:17.687Z,44.35
2023-05-16T12:36:45.436Z,44.39
2023-05-16T12:39:14.386Z,43.14
2023-05-16T12:41:44.062Z,45.00
2023-05-16T12:44:17.348Z,42.98
2023-05-16T12:46:46.636Z,42.50
2023-05-16T12:49:14.645Z,43.58
2023-05-16T12:51:42.520Z,44.67
2023-05-16T12:54:11.635Z,43.74
2023-05-16T12:56:40.028Z,43.02
2023-05-16T12:59:09.077Z,43.17
2023-05-16T13:01:37.336Z,42.00
2023-05-16T13:04:05.805Z,41.25
2023-05-16T13:06:48.840Z,42.37
2023-05-16T13:09:22.404Z,42.19
2023-05-16T13:11:50.499Z,42.64
2023-05-16T13:14:19.390Z,42.44
2023-05-16T13:16:47.006Z,40.79
2023-05-16T13:19:14.891Z,38.88
2023-05-16T13:21:42.495Z,41.84
2023-05-16T13:24:14.999Z,40.09
2023-05-16T13:26:42.510Z,40.79
2023-05-16T13:29:11.700Z,41.40
2023-05-16T13:31:40.663Z,38.98
2023-05-16T13:34:08.300Z,40.55
2023-05-16T13:36:52.288Z,40.29
2023-05-16T13:39:22.251Z,39.17
2023-05-16T13:41:50.196Z,38.77
2023-05-16T13:44:18.096Z,39.77
2023-05-16T13:46:46.976Z,39.42
2023-05-16T13:49:14.546Z,39.30
2023-05-16T13:51:42.128Z,38.21
2023-05-16T13:54:09.805Z,39.10
2023-05-16T13:56:37.319Z,38.15
2023-05-16T13:59:07.183Z,38.88
2023-05-16T14:01:36.364Z,37.60
2023-05-16T14:04:05.769Z,38.47
2023-05-16T14:06:33.384Z,38.27
2023-05-16T14:09:01.077Z,36.33
2023-05-16T14:11:29.571Z,37.50
2023-05-16T14:13:57.384Z,38.34
2023-05-16T14:16:25.001Z,38.91
2023-05-16T14:18:52.736Z,38.55
2023-05-16T14:21:21.599Z,39.88
2023-05-16T14:23:49.196Z,38.12
2023-05-16T14:26:18.338Z,38.52
2023-05-16T14:28:45.908Z,37.47
2023-05-16T14:31:13.385Z,36.34
2023-05-16T14:33:43.062Z,37.12
2023-05-16T14:36:10.805Z,37.75
2023-05-16T14:38:40.004Z,38.18
2023-05-16T14:41:07.547Z,37.74
2023-05-16T14:43:35.252Z,36.68
2023-05-16T14:46:03.005Z,37.66
2023-05-16T14:48:31.226Z,37.73
2023-05-16T14:50:58.751Z,38.86
2023-05-16T14:53:26.600Z,38.07
2023-05-16T14:55:56.952Z,37.45
2023-05-16T14:58:27.112Z,37.60
2023-05-16T15:00:54.757Z,37.86
2023-05-16T15:03:25.133Z,38.26
2023-05-16T15:05:54.732Z,39.36
2023-05-16T15:08:22.338Z,39.11
2023-05-16T15:10:51.475Z,39.06
2023-05-16T15:13:20.469Z,39.28
2023-05-16T15:15:54.493Z,39.16
2023-05-16T15:18:24.068Z,39.42
2023-05-16T15:20:57.338Z,38.71
2023-05-16T15:23:25.026Z,38.55
2023-05-16T15:26:01.167Z,37.64
2023-05-16T15:28:30.153Z,38.07
2023-05-16T15:30:57.673Z,37.59
2023-05-16T15:33:25.541Z,38.51
2023-05-16T15:35:53.094Z,36.78
2023-05-16T15:38:20.896Z,37.62
2023-05-16T15:40:52.659Z,37.82
2023-05-16T15:43:22.704Z,38.41
2023-05-16T15:45:51.601Z,37.27
2023-05-16T15:48:19.460Z,37.38
2023-05-16T15:50:47.033Z,37.40
2023-05-16T15:53:14.553Z,36.22
2023-05-16T15:55:42.565Z,36.50
2023-05-16T15:58:10.088Z,36.33
2023-05-16T16:00:37.586Z,36.63
2023-05-16T16:03:06.586Z,35.79
2023-05-16T16:05:34.269Z,36.32
2023-05-16T16:08:01.792Z,36.34
2023-05-16T16:10:29.319Z,37.06
2023-05-16T16:13:00.103Z,37.43
2023-05-16T16:15:28.936Z,37.14
2023-05-16T16:17:59.045Z,37.51
2023-05-16T16:20:28.344Z,38.16
2023-05-16T16:22:55.863Z,38.59
2023-05-16T16:25:23.409Z,38.02
2023-05-16T16:27:51.507Z,38.84
2023-05-16T16:30:19.057Z,38.80
2023-05-16T16:32:48.523Z,38.32
2023-05-16T16:35:16.405Z,38.00
2023-05-16T16:38:01.988Z,38.64
2023-05-16T16:40:33.670Z,37.54
2023-05-16T16:43:01.268Z,38.20
2023-05-16T16:45:29.281Z,38.51
2023-05-16T16:47:57.981Z,38.40
2023-05-16T16:50:25.736Z,39.43
2023-05-16T16:52:54.803Z,38.29
2023-05-16T16:55:22.888Z,38.35
2023-05-16T16:57:50.444Z,37.32
2023-05-16T17:00:18.488Z,38.69
2023-05-16T17:02:46.093Z,37.46
2023-05-16T17:05:13.799Z,37.63
2023-05-16T17:07:41.328Z,37.47
2023-05-16T17:10:11.208Z,35.97
2023-05-16T17:12:44.403Z,35.70
2023-05-16T17:15:12.595Z,35.33
2023-05-16T17:17:40.104Z,35.68
2023-05-16T17:20:09.028Z,36.36
2023-05-16T17:22:36.804Z,37.42
2023-05-16T17:25:04.755Z,37.91
2023-05-16T17:27:33.712Z,37.64
2023-05-16T17:30:01.405Z,37.62
2023-05-16T17:32:29.214Z,37.34
2023-05-16T17:34:56.911Z,38.68
2023-05-16T17:37:24.440Z,39.15
2023-05-16T17:39:52.275Z,38.98
2023-05-16T17:42:19.852Z,38.68
2023-05-16T17:44:48.869Z,38.21
2023-05-16T17:47:16.605Z,38.06
2023-05-16T17:49:44.530Z,38.07
2023-05-16T17:52:12.055Z,38.77
2023-05-16T17:54:39.587Z,40.14
2023-05-16T17:57:07.132Z,40.50
2023-05-16T17:59:34.811Z,40.30
2023-05-16T18:02:04.135Z,40.38
2023-05-16T18:04:31.804Z,41.31
2023-05-16T18:07:00.211Z,40.73
2023-05-16T18:09:28.622Z,41.53
2023-05-16T18:11:56.364Z,41.01
2023-05-16T18:14:24.020Z,41.82
2023-05-16T18:16:51.541Z,41.48
2023-05-16T18:19:20.555Z,42.27
2023-05-16T18:21:48.141Z,41.61
2023-05-16T18:24:16.414Z,41.60
2023-05-16T18:26:46.425Z,41.52
2023-05-16T18:29:14.060Z,41.59
2023-05-16T18:31:42.360Z,42.15
2023-05-16T18:34:10.307Z,42.39
2023-05-16T18:36:39.260Z,43.52
2023-05-16T18:39:07.079Z,43.14
2023-05-16T18:41:34.688Z,43.18
2023-05-16T18:44:02.257Z,43.58
2023-05-16T18:46:29.845Z,43.46
2023-05-16T18:48:58.335Z,43.74
2023-05-16T18:51:26.249Z,44.10
2023-05-16T18:53:55.178Z,44.05
2023-05-16T18:56:22.801Z,44.15
2023-05-16T18:58:50.803Z,45.06
2023-05-16T19:01:22.036Z,45.25
2023-05-16T19:03:49.703Z,45.74
2023-05-16T19:06:17.340Z,45.81
2023-05-16T19:08:47.908Z,45.18
2023-05-16T19:11:17.814Z,45.61
2023-05-16T19:13:45.637Z,45.94
2023-05-16T19:16:13.408Z,46.48
2023-05-16T19:18:41.110Z,46.51
2023-05-16T19:21:10.006Z,46.56
2023-05-16T19:23:37.573Z,48.51
2023-05-16T19:26:09.994Z,47.61
2023-05-16T19:28:40.626Z,47.67
2023-05-16T19:31:08.323Z,47.47
2023-05-16T19:33:36.064Z,47.74
2023-05-16T19:36:05.791Z,48.27
2023-05-16T19:38:33.348Z,48.44
2023-05-16T19:41:01.135Z,48.46
2023-05-16T19:43:29.477Z,48.56
2023-05-16T19:45:58.374Z,48.31
2023-05-16T19:48:26.462Z,49.33
2023-05-16T19:50:54.008Z,48.66
2023-05-16T19:53:21.690Z,49.01
2023-05-16T19:55:49.508Z,49.22
2023-05-16T19:58:17.312Z,49.53
2023-05-16T20:00:45.290Z,49.58
2023-05-16T20:03:14.469Z,49.46
2023-05-16T20:05:42.138Z,49.47
2023-05-16T20:08:11.177Z,49.82
2023-05-16T20:10:39.010Z,50.45
2023-05-16T20:13:06.585Z,51.00
2023-05-16T20:15:34.107Z,50.56
2023-05-16T20:18:01.963Z,50.47
2023-05-16T20:20:31.026Z,50.41
2023-05-16T20:22:58.608Z,50.76
2023-05-16T20:25:26.666Z,51.15
2023-05-16T20:27:54.582Z,50.75
2023-05-16T20:30:22.333Z,51.52
2023-05-16T20:32:49.881Z,51.53
2023-05-16T20:35:17.470Z,52.05
2023-05-16T20:37:46.316Z,51.79
2023-05-16T20:40:13.920Z,51.60
2023-05-16T20:42:41.585Z,51.93
2023-05-16T20:45:12.738Z,52.25
2023-05-16T20:47:40.315Z,52.12
2023-05-16T20:50:08.969Z,52.17
2023-05-16T20:52:39.200Z,52.14
2023-05-16T20:55:08.846Z,52.94
2023-05-16T20:57:36.396Z,52.69
2023-05-16T21:00:04.773Z,52.79
2023-05-16T21:02:32.505Z,53.20
2023-05-16T21:05:14.406Z,53.36
2023-05-16T21:07:47.633Z,53.78
2023-05-16T21:10:16.835Z,54.13
2023-05-16T21:12:44.530Z,53.99
2023-05-16T21:15:12.279Z,54.29
2023-05-16T21:17:41.456Z,55.08
2023-05-16T21:20:09.988Z,54.40
2023-05-16T21:22:37.577Z,54.48
2023-05-16T21:25:05.682Z,54.95
2023-05-16T21:27:34.794Z,54.88
2023-05-16T21:30:02.780Z,55.14
2023-05-16T21:32:32.893Z,55.41
2023-05-16T21:35:04.132Z,55.65
2023-05-16T21:37:31.799Z,55.69
2023-05-16T21:39:59.315Z,55.80
2023-05-16T21:42:26.896Z,57.23
2023-05-16T21:44:55.737Z,56.97
2023-05-16T21:47:23.374Z,57.29
2023-05-16T21:49:51.011Z,57.86
2023-05-16T21:52:18.578Z,57.29
2023-05-16T21:54:51.396Z,57.99
2023-05-16T21:57:19.575Z,58.29
2023-05-16T21:59:50.254Z,57.68
2023-05-16T22:02:22.795Z,58.27
2023-05-16T22:04:54.957Z,58.93
2023-05-16T22:07:24.024Z,58.86
2023-05-16T22:09:53.558Z,59.39
2023-05-16T22:12:21.239Z,59.82
2023-05-16T22:14:48.998Z,59.65
2023-05-16T22:17:17.157Z,59.89
2023-05-16T22:19:47.084Z,59.62
2023-05-16T22:22:14.756Z,60.38
2023-05-16T22:24:42.359Z,60.04
2023-05-16T22:27:09.932Z,59.89
2023-05-16T22:29:38.881Z,60.16
2023-05-16T22:32:07.832Z,60.45
2023-05-16T22:34:35.423Z,60.56
2023-05-16T22:37:04.380Z,60.86
2023-05-16T22:39:31.891Z,60.47
2023-05-16T22:42:00.915Z,61.16
2023-05-16T22:44:28.516Z,60.88
2023-05-16T22:46:56.078Z,61.17
2023-05-16T22:49:23.666Z,61.04
2023-05-16T22:51:51.198Z,61.62
2023-05-16T22:54:22.489Z,61.83
2023-05-16T22:56:50.054Z,61.52
2023-05-16T22:59:17.562Z,61.96
2023-05-16T23:01:51.732Z,61.31
2023-05-16T23:04:19.523Z,62.65
2023-05-16T23:06:47.298Z,62.05
2023-05-16T23:09:15.165Z,61.96
2023-05-16T23:11:44.023Z,63.16
2023-05-16T23:14:11.771Z,62.26
2023-05-16T23:16:39.346Z,62.36
2023-05-16T23:19:09.250Z,63.28
2023-05-16T23:21:37.517Z,63.46
2023-05-16T23:24:05.243Z,63.30
2023-05-16T23:26:32.865Z,63.34
2023-05-16T23:29:01.833Z,63.42
2023-05-16T23:31:29.357Z,63.01
2023-05-16T23:33:57.151Z,64.32
2023-05-16T23:36:24.720Z,63.09
2023-05-16T23:38:52.328Z,63.94
2023-05-16T23:41:19.858Z,63.87
2023-05-16T23:43:51.149Z,63.30
2023-05-16T23:46:20.036Z,63.75
2023-05-16T23:48:47.621Z,63.36
2023-05-16T23:51:15.232Z,63.28
2023-05-16T23:53:42.802Z,64.01
2023-05-16T23:56:10.360Z,64.38
2023-05-16T23:58:37.855Z,64.87
